Glendale, Wisconsin
Current Conditions -  °F | °C
As of 6:45 PM on Wednesday 26 Nov 2014 (Local Time) from KMWC Reporting Station
Overcast Overcast  
Wind Chill: 12°   Ceiling: 3200
Heat Index: 27°   Visibility: 7mi
Dew Point: 19°   Wind: 22mph
Humidity: 74%   Direction: 339°NNW
Pressure: 30.16"   Gusts: NA
Location:  43.13°N, 87.93°W
Report Text: KMWC 270045Z AUTO 33919KT 7SM OVC032 M03/M07 A3016
Loading
Personal Weather Stations






























Interactive Weather Map New forecast layout! Learn more

10-Day Weather Forecast

Advertisements
Track Severe Weather on mobile